Time;durP1;ratioP1;P1;durP2;ratioP2;P2;SDS_P1;SDS_P2;PMS_P1;PMS_P2;Temp;Humidity;BMP_temperature;BMP_pressure;BME280_temperature;BME280_humidity;BME280_pressure;Samples;Min_cycle;Max_cycle;Signal;HPM_P1;HPM_P2
2023/05/09 00:02:08;;;;;;;3.22;1.58;;;12.40;51.70;;;;;;4987600;28;20116;-71
2023/05/09 00:04:34;;;;;;;5.68;1.67;;;12.40;51.50;;;;;;4979954;28;20040;-71
2023/05/09 00:07:00;;;;;;;6.85;1.65;;;12.30;51.70;;;;;;4991538;28;20038;-71
2023/05/09 00:09:26;;;;;;;5.25;1.83;;;12.30;51.60;;;;;;4989486;28;20033;-71
2023/05/09 00:11:51;;;;;;;4.10;1.67;;;12.20;51.90;;;;;;4990268;28;20031;-71
2023/05/09 00:14:17;;;;;;;6.97;1.70;;;12.30;51.60;;;;;;4990137;28;20034;-71
2023/05/09 00:16:45;;;;;;;4.40;1.60;;;12.20;52.20;;;;;;4987128;28;20378;-71
2023/05/09 00:19:11;;;;;;;4.22;1.67;;;12.20;51.90;;;;;;4993329;28;20411;-73
2023/05/09 00:21:37;;;;;;;2.90;1.58;;;12.10;52.10;;;;;;4985138;28;20034;-71
2023/05/09 00:24:03;;;;;;;5.95;1.65;;;12.10;52.20;;;;;;4998785;28;20053;-71
2023/05/09 00:26:29;;;;;;;4.60;2.00;;;12.10;52.30;;;;;;4985187;28;20121;-71
2023/05/09 00:28:54;;;;;;;5.03;1.80;;;12.10;52.30;;;;;;4968885;28;20534;-71
2023/05/09 00:31:20;;;;;;;5.60;1.48;;;12.00;52.80;;;;;;4984054;28;20040;-71
2023/05/09 00:33:45;;;;;;;8.23;1.58;;;12.00;52.70;;;;;;4984589;28;20101;-72
2023/05/09 00:36:11;;;;;;;4.82;1.95;;;12.00;52.60;;;;;;4985528;28;20360;-71
2023/05/09 00:38:36;;;;;;;4.95;1.70;;;11.90;52.90;;;;;;4988133;28;20066;-72
2023/05/09 00:41:02;;;;;;;3.58;1.85;;;11.90;53.00;;;;;;4987520;28;20128;-71
2023/05/09 00:43:28;;;;;;;5.63;2.00;;;11.80;53.30;;;;;;4987955;28;20542;-71
2023/05/09 00:45:54;;;;;;;7.15;1.90;;;11.80;53.50;;;;;;4990922;28;20534;-71
2023/05/09 00:48:20;;;;;;;5.85;1.90;;;11.80;53.50;;;;;;4983761;28;20042;-71
2023/05/09 00:50:51;;;;;;;4.07;1.75;;;11.70;53.70;;;;;;4990849;28;20470;-71
2023/05/09 00:53:17;;;;;;;5.53;2.03;;;11.60;54.10;;;;;;4994190;28;20026;-71
2023/05/09 00:55:43;;;;;;;3.97;2.40;;;11.50;54.40;;;;;;4994000;28;20345;-71
2023/05/09 00:58:08;;;;;;;5.97;1.58;;;11.60;54.40;;;;;;4988573;28;20038;-71
2023/05/09 01:00:34;;;;;;;5.53;2.20;;;11.50;54.50;;;;;;4988650;28;20068;-71
2023/05/09 01:02:59;;;;;;;4.28;1.40;;;11.40;54.90;;;;;;4985880;28;20030;-71
2023/05/09 01:05:30;;;;;;;5.70;2.00;;;11.50;54.60;;;;;;4998048;28;20041;-71
2023/05/09 01:08:09;;;;;;;3.47;1.83;;;11.30;55.20;;;;;;4990797;28;20455;-72
2023/05/09 01:11:11;;;;;;;4.47;1.60;;;11.30;55.40;;;;;;4996946;28;20034;-72
2023/05/09 01:13:40;;;;;;;4.82;1.77;;;11.30;55.40;;;;;;4970365;28;20046;-71
2023/05/09 01:16:24;;;;;;;3.45;1.83;;;11.20;55.80;;;;;;4990176;28;20056;-71
2023/05/09 01:19:26;;;;;;;4.80;2.17;;;11.10;56.20;;;;;;4984861;28;20570;-71
2023/05/09 01:21:51;;;;;;;;;;;11.20;56.30;;;;;;4987962;28;20023;-71
2023/05/09 01:24:32;;;;;;;4.20;1.92;;;11.20;56.20;;;;;;4995449;28;19920;-71
2023/05/09 01:27:01;;;;;;;;;;;11.10;56.50;;;;;;4990542;28;20038;-71
2023/05/09 01:29:36;;;;;;;3.83;1.90;;;11.00;57.00;;;;;;4997243;28;20325;-71
2023/05/09 01:32:14;;;;;;;7.35;2.30;;;11.00;57.20;;;;;;4989778;28;20022;-71
2023/05/09 01:34:41;;;;;;;6.03;2.00;;;11.00;57.50;;;;;;4990160;28;20041;-71
2023/05/09 01:37:08;;;;;;;6.55;2.08;;;11.00;57.70;;;;;;4988597;28;20125;-70
2023/05/09 01:39:38;;;;;;;3.28;1.80;;;10.90;57.80;;;;;;4993938;28;20422;-71
2023/05/09 01:42:07;;;;;;;3.37;1.73;;;10.90;58.30;;;;;;4992862;28;20383;-71
2023/05/09 01:44:37;;;;;;;5.82;2.10;;;10.90;58.40;;;;;;4997458;28;20081;-71
2023/05/09 01:47:05;;;;;;;4.75;2.03;;;10.80;58.70;;;;;;4990586;28;20534;-71
2023/05/09 01:49:32;;;;;;;4.45;1.73;;;10.80;58.70;;;;;;4997666;28;20481;-71
2023/05/09 01:52:02;;;;;;;5.53;2.17;;;10.80;58.90;;;;;;4973937;28;20371;-71
2023/05/09 01:54:28;;;;;;;5.47;2.20;;;10.70;59.70;;;;;;5003581;28;20030;-71
2023/05/09 01:56:55;;;;;;;2.97;1.85;;;10.60;59.70;;;;;;4989091;28;20377;-71
2023/05/09 01:59:21;;;;;;;7.03;2.17;;;10.70;60.00;;;;;;4993074;28;20120;-71
2023/05/09 02:01:48;;;;;;;4.35;2.05;;;10.60;59.90;;;;;;5002469;28;20034;-72
2023/05/09 02:04:16;;;;;;;4.00;2.20;;;10.60;60.30;;;;;;4988885;28;20455;-71
2023/05/09 02:06:43;;;;;;;5.18;2.40;;;10.50;60.30;;;;;;4992552;28;20034;-71
2023/05/09 02:09:11;;;;;;;5.57;2.33;;;10.50;60.90;;;;;;4995702;28;20041;-71
2023/05/09 02:11:37;;;;;;;3.90;2.03;;;10.50;60.80;;;;;;4995459;28;20034;-71
2023/05/09 02:14:02;;;;;;;3.90;2.35;;;10.50;60.90;;;;;;4989529;28;20057;-72
2023/05/09 02:23:12;;;;;;;6.43;2.45;;;10.40;61.60;;;;;;4990906;28;20098;-71
2023/05/09 02:25:39;;;;;;;3.55;2.35;;;10.30;62.50;;;;;;4990443;28;20030;-70
2023/05/09 02:28:06;;;;;;;7.43;2.70;;;10.30;62.20;;;;;;4990771;28;20088;-71
2023/05/09 02:30:37;;;;;;;5.57;2.45;;;10.20;63.00;;;;;;4988533;28;20045;-71
2023/05/09 02:33:06;;;;;;;4.75;2.17;;;10.20;63.30;;;;;;5008089;28;20049;-71
2023/05/09 02:35:32;;;;;;;5.22;2.58;;;10.10;63.20;;;;;;4989002;28;20034;-71
2023/05/09 02:37:58;;;;;;;4.30;2.30;;;10.10;63.50;;;;;;4989180;28;20089;-70
2023/05/09 02:40:26;;;;;;;4.82;2.25;;;10.10;63.70;;;;;;4991472;28;20062;-71
2023/05/09 02:42:52;;;;;;;6.82;2.90;;;10.10;64.10;;;;;;4990857;28;20086;-71
2023/05/09 02:45:17;;;;;;;3.97;2.17;;;10.00;64.10;;;;;;4991654;28;20057;-71
2023/05/09 02:47:43;;;;;;;7.03;2.60;;;10.00;64.40;;;;;;4989789;28;20073;-70
2023/05/09 02:50:09;;;;;;;6.72;2.40;;;9.90;64.70;;;;;;4991427;28;20378;-71
2023/05/09 02:52:34;;;;;;;4.80;2.35;;;9.90;64.70;;;;;;4989750;28;20722;-71
2023/05/09 02:55:00;;;;;;;5.68;2.22;;;9.80;65.10;;;;;;4990341;28;20488;-71
2023/05/09 02:57:25;;;;;;;4.53;2.55;;;9.80;65.30;;;;;;4990541;28;20078;-71
2023/05/09 02:59:51;;;;;;;5.03;2.60;;;9.80;65.60;;;;;;4990653;28;20466;-71
2023/05/09 03:02:16;;;;;;;6.28;2.65;;;9.80;65.80;;;;;;4990242;28;20033;-71
2023/05/09 03:04:42;;;;;;;6.40;2.75;;;9.70;66.30;;;;;;4995346;28;20029;-70
2023/05/09 03:07:07;;;;;;;6.47;2.97;;;9.70;66.60;;;;;;4992275;28;20018;-71
2023/05/09 03:09:33;;;;;;;6.15;2.72;;;9.60;66.70;;;;;;4989843;28;20383;-71
2023/05/09 03:11:58;;;;;;;6.10;2.60;;;9.60;66.70;;;;;;4992301;28;20057;-70
2023/05/09 03:14:24;;;;;;;5.93;2.55;;;9.50;66.90;;;;;;4987451;28;20054;-71
2023/05/09 03:16:50;;;;;;;6.25;2.78;;;9.50;67.30;;;;;;4988294;28;20030;-71
2023/05/09 03:19:16;;;;;;;6.63;2.72;;;9.50;67.30;;;;;;4991042;28;20034;-71
2023/05/09 03:21:41;;;;;;;7.63;3.10;;;9.40;67.70;;;;;;4982436;28;20122;-71
2023/05/09 03:24:07;;;;;;;3.80;2.63;;;9.50;67.70;;;;;;4993169;28;20037;-71
2023/05/09 03:26:36;;;;;;;8.73;3.13;;;9.40;67.80;;;;;;4987875;28;20483;-71
2023/05/09 03:29:02;;;;;;;6.32;3.08;;;9.40;67.80;;;;;;4996334;28;20046;-71
2023/05/09 03:31:27;;;;;;;6.95;2.80;;;9.40;68.00;;;;;;4960073;28;20026;-70
2023/05/09 03:33:53;;;;;;;5.82;2.95;;;9.30;68.60;;;;;;4989352;28;20041;-71
2023/05/09 03:36:19;;;;;;;5.55;2.85;;;9.30;68.60;;;;;;4979389;28;20029;-70
2023/05/09 03:38:44;;;;;;;7.75;2.90;;;9.30;68.90;;;;;;4990100;28;20045;-71
2023/05/09 03:41:12;;;;;;;5.28;2.65;;;9.20;69.20;;;;;;4988450;28;20061;-71
2023/05/09 03:43:38;;;;;;;6.10;2.70;;;9.20;69.70;;;;;;4996723;28;20034;-71
2023/05/09 03:46:03;;;;;;;5.45;3.17;;;9.10;69.80;;;;;;4989480;28;20073;-73
2023/05/09 03:48:28;;;;;;;4.93;3.08;;;9.10;69.80;;;;;;4987752;28;20038;-73
2023/05/09 03:50:54;;;;;;;5.45;3.30;;;9.10;70.10;;;;;;4992300;28;20026;-73
2023/05/09 03:53:19;;;;;;;6.22;3.58;;;9.10;69.80;;;;;;4990050;28;20037;-73
2023/05/09 03:55:45;;;;;;;6.20;3.45;;;9.10;70.30;;;;;;4989296;28;20084;-73
2023/05/09 03:58:11;;;;;;;7.63;3.60;;;9.10;70.20;;;;;;4973892;28;20390;-71
2023/05/09 04:00:37;;;;;;;9.25;3.40;;;9.10;70.40;;;;;;4990898;28;20030;-70
2023/05/09 04:03:03;;;;;;;5.75;3.30;;;9.10;70.70;;;;;;4990580;28;20034;-70
2023/05/09 04:05:28;;;;;;;7.40;3.15;;;9.10;70.70;;;;;;4988349;28;20037;-71
2023/05/09 04:07:54;;;;;;;5.72;3.53;;;9.10;71.00;;;;;;4989865;28;20030;-71
2023/05/09 04:10:19;;;;;;;7.05;3.20;;;9.10;71.20;;;;;;4988020;28;20108;-71
2023/05/09 04:12:45;;;;;;;6.88;3.85;;;9.00;70.90;;;;;;4990671;28;20038;-71
2023/05/09 04:15:10;;;;;;;6.78;3.78;;;9.10;71.00;;;;;;4988448;28;20034;-71
2023/05/09 04:17:36;;;;;;;6.38;3.60;;;9.10;71.10;;;;;;4990771;28;20067;-71
2023/05/09 04:20:02;;;;;;;6.22;3.75;;;9.10;71.40;;;;;;4989605;28;20027;-70
2023/05/09 04:22:27;;;;;;;9.82;3.78;;;9.10;71.50;;;;;;4988214;28;20040;-71
2023/05/09 04:24:53;;;;;;;6.63;3.55;;;9.00;71.50;;;;;;4990333;28;20125;-71
2023/05/09 04:27:18;;;;;;;6.20;3.85;;;9.10;71.80;;;;;;4994173;28;20458;-71
2023/05/09 04:29:44;;;;;;;7.03;3.30;;;9.10;71.60;;;;;;4994205;28;20471;-70
2023/05/09 04:32:10;;;;;;;6.47;3.63;;;9.10;71.70;;;;;;4982194;28;20023;-73
2023/05/09 04:34:36;;;;;;;6.82;3.83;;;9.10;71.50;;;;;;4993100;28;20629;-73
2023/05/09 04:37:01;;;;;;;7.43;3.97;;;9.20;71.90;;;;;;4991836;28;20026;-72
2023/05/09 04:39:27;;;;;;;5.75;3.38;;;9.20;72.00;;;;;;4986476;28;20379;-72
2023/05/09 04:41:52;;;;;;;9.20;3.75;;;9.20;72.20;;;;;;4993226;28;20037;-72
2023/05/09 04:44:18;;;;;;;4.97;3.53;;;9.20;72.20;;;;;;4993592;28;20085;-73
2023/05/09 04:46:44;;;;;;;5.95;3.75;;;9.30;72.00;;;;;;4991842;28;20089;-73
2023/05/09 04:49:09;;;;;;;5.65;3.60;;;9.30;72.10;;;;;;4988110;28;20410;-73
2023/05/09 04:51:35;;;;;;;7.88;3.47;;;9.30;72.30;;;;;;4995990;28;20079;-73
2023/05/09 04:54:00;;;;;;;6.43;3.67;;;9.30;72.30;;;;;;4992198;28;20058;-75
2023/05/09 04:56:25;;;;;;;5.78;3.53;;;9.40;72.00;;;;;;4990749;28;20026;-75
2023/05/09 04:58:51;;;;;;;5.55;3.60;;;9.40;71.80;;;;;;4993075;28;20428;-77
2023/05/09 05:01:17;;;;;;;6.35;3.97;;;9.50;71.80;;;;;;4993195;28;20022;-76
2023/05/09 05:03:43;;;;;;;6.65;3.60;;;9.60;72.10;;;;;;4997110;28;20088;-77
2023/05/09 05:06:08;;;;;;;8.40;3.70;;;9.60;71.60;;;;;;4991798;28;20511;-77
2023/05/09 05:08:34;;;;;;;5.05;3.33;;;9.60;71.80;;;;;;4996516;28;20034;-76
2023/05/09 05:10:59;;;;;;;12.57;3.70;;;9.70;71.90;;;;;;4993287;28;20026;-75
2023/05/09 05:13:25;;;;;;;6.50;3.58;;;9.70;71.70;;;;;;4992442;28;20026;-72
2023/05/09 05:15:51;;;;;;;6.05;3.30;;;9.80;71.80;;;;;;4986210;28;20104;-72
2023/05/09 05:18:16;;;;;;;6.65;3.30;;;9.90;71.80;;;;;;4986730;28;20039;-72
2023/05/09 05:20:42;;;;;;;7.60;3.83;;;9.90;71.70;;;;;;4993172;28;20026;-73
2023/05/09 05:23:08;;;;;;;5.45;3.40;;;10.10;71.60;;;;;;4983188;28;20037;-74
2023/05/09 05:25:34;;;;;;;6.40;3.40;;;10.10;71.80;;;;;;4985530;28;20142;-73
2023/05/09 05:27:59;;;;;;;5.25;3.40;;;10.20;70.70;;;;;;4992818;28;20085;-74
2023/05/09 05:30:25;;;;;;;6.68;3.75;;;10.30;70.60;;;;;;4990267;28;20046;-73
2023/05/09 05:32:50;;;;;;;8.35;3.83;;;10.40;70.60;;;;;;4992844;28;20537;-74
2023/05/09 05:35:16;;;;;;;9.18;3.53;;;10.50;70.50;;;;;;4983184;28;20035;-74
2023/05/09 05:37:42;;;;;;;5.28;3.38;;;10.50;70.20;;;;;;4987554;28;20031;-73
2023/05/09 05:40:08;;;;;;;4.63;3.08;;;10.60;70.20;;;;;;4989725;28;20391;-74
2023/05/09 05:42:34;;;;;;;5.43;3.35;;;10.80;70.10;;;;;;4993798;28;20023;-74
2023/05/09 05:45:05;;;;;;;5.70;3.55;;;10.80;69.50;;;;;;4983410;28;20030;-73
2023/05/09 05:47:32;;;;;;;7.25;3.63;;;11.00;69.00;;;;;;4991890;28;20490;-73
2023/05/09 05:49:59;;;;;;;8.05;3.83;;;11.20;68.80;;;;;;4990429;28;20089;-73
2023/05/09 05:52:25;;;;;;;6.13;3.33;;;11.30;68.50;;;;;;4991641;28;20033;-73
2023/05/09 05:54:51;;;;;;;5.45;3.72;;;11.40;68.50;;;;;;4986038;28;20026;-73
2023/05/09 05:57:17;;;;;;;6.68;3.05;;;11.60;68.00;;;;;;4989386;28;20034;-73
2023/05/09 05:59:42;;;;;;;6.88;3.30;;;11.80;67.90;;;;;;4990870;28;20038;-73
2023/05/09 06:02:08;;;;;;;7.97;3.60;;;11.90;67.30;;;;;;4984168;28;20031;-73
2023/05/09 06:04:33;;;;;;;5.45;3.20;;;11.90;66.40;;;;;;4987806;28;20057;-73
2023/05/09 06:06:59;;;;;;;6.15;3.58;;;12.10;66.50;;;;;;4989330;28;20064;-73
2023/05/09 06:09:24;;;;;;;6.00;3.35;;;12.20;66.10;;;;;;4993297;28;20026;-73
2023/05/09 06:11:50;;;;;;;8.45;3.55;;;12.40;66.60;;;;;;4992944;28;20026;-73
2023/05/09 06:14:15;;;;;;;5.25;3.10;;;12.50;65.50;;;;;;4990758;28;20083;-73
2023/05/09 06:16:41;;;;;;;7.10;3.28;;;12.60;65.30;;;;;;4990382;28;20049;-73
2023/05/09 06:19:06;;;;;;;5.20;3.17;;;12.80;65.30;;;;;;4989177;28;20152;-73
2023/05/09 06:21:33;;;;;;;7.00;3.00;;;13.00;65.40;;;;;;4985810;28;20492;-73
2023/05/09 06:23:58;;;;;;;8.10;3.05;;;13.10;64.30;;;;;;4981046;28;20042;-72
2023/05/09 06:26:25;;;;;;;7.82;3.25;;;13.10;63.20;;;;;;4982512;28;20042;-73
2023/05/09 06:28:50;;;;;;;5.90;3.10;;;13.20;63.60;;;;;;4989641;28;20493;-73
2023/05/09 06:31:15;;;;;;;7.97;3.13;;;13.50;62.90;;;;;;4990956;28;20375;-73
2023/05/09 06:33:41;;;;;;;4.72;3.05;;;13.50;62.80;;;;;;4986952;28;20049;-73
2023/05/09 06:36:07;;;;;;;8.07;3.25;;;13.70;63.10;;;;;;4985798;28;20493;-74
2023/05/09 06:38:33;;;;;;;8.07;2.85;;;13.80;62.60;;;;;;4986312;28;20054;-73
2023/05/09 06:40:58;;;;;;;5.90;2.85;;;13.70;63.10;;;;;;4985013;28;20049;-74
2023/05/09 06:43:24;;;;;;;6.50;3.10;;;14.10;61.50;;;;;;4990235;28;20030;-73
2023/05/09 06:45:49;;;;;;;8.68;3.75;;;14.20;61.30;;;;;;4986879;28;20054;-73
2023/05/09 06:48:15;;;;;;;4.72;2.70;;;13.90;62.50;;;;;;4984470;28;20033;-74
2023/05/09 06:50:40;;;;;;;9.88;3.03;;;14.40;61.60;;;;;;4985068;28;20034;-73
2023/05/09 06:53:06;;;;;;;7.75;3.30;;;14.30;61.80;;;;;;4987958;28;20537;-73
2023/05/09 06:55:31;;;;;;;10.85;3.47;;;14.50;60.60;;;;;;4983831;28;20057;-73
2023/05/09 06:57:57;;;;;;;7.32;3.08;;;14.80;59.70;;;;;;4982106;28;20475;-74
2023/05/09 07:00:22;;;;;;;6.57;3.38;;;14.80;60.50;;;;;;4990311;28;20481;-73
2023/05/09 07:02:48;;;;;;;9.85;3.55;;;15.30;60.60;;;;;;4989951;28;20058;-73
2023/05/09 07:05:14;;;;;;;6.03;3.45;;;15.00;60.30;;;;;;4986657;28;20466;-73
2023/05/09 07:07:40;;;;;;;6.10;3.17;;;15.40;60.10;;;;;;4984289;28;20038;-73
2023/05/09 07:10:06;;;;;;;6.65;2.60;;;15.70;60.40;;;;;;4985429;28;20034;-73
2023/05/09 07:12:32;;;;;;;10.45;3.38;;;15.80;58.20;;;;;;4984046;28;20030;-73
2023/05/09 07:14:58;;;;;;;6.03;2.88;;;15.80;56.40;;;;;;4988956;28;20089;-74
2023/05/09 07:17:24;;;;;;;7.75;3.33;;;15.80;58.10;;;;;;4986923;28;20441;-72
2023/05/09 07:19:50;;;;;;;6.03;2.85;;;15.80;58.10;;;;;;4985328;28;20034;-73
2023/05/09 07:22:15;;;;;;;5.57;3.20;;;15.80;58.20;;;;;;4989094;28;20038;-73
2023/05/09 07:24:43;;;;;;;4.97;3.03;;;16.10;56.80;;;;;;4993480;28;20150;-73
2023/05/09 07:27:08;;;;;;;5.57;3.15;;;16.30;56.90;;;;;;4988670;28;20018;-73
2023/05/09 07:29:34;;;;;;;5.90;2.92;;;16.60;56.60;;;;;;4989995;28;20065;-72
2023/05/09 07:31:59;;;;;;;4.78;2.92;;;17.00;55.00;;;;;;4983177;28;20475;-72
2023/05/09 07:34:25;;;;;;;3.85;2.50;;;17.00;55.60;;;;;;4981830;28;20023;-73
2023/05/09 07:36:50;;;;;;;5.50;2.92;;;17.20;55.10;;;;;;4984386;28;20123;-73
2023/05/09 07:39:17;;;;;;;4.35;2.78;;;17.50;55.30;;;;;;4998493;28;20058;-73
2023/05/09 07:41:42;;;;;;;5.40;2.60;;;17.70;54.40;;;;;;4991599;28;20037;-74
2023/05/09 07:44:08;;;;;;;5.15;2.70;;;17.30;54.60;;;;;;4988439;28;20065;-73
2023/05/09 07:46:36;;;;;;;5.57;3.28;;;17.50;53.80;;;;;;4989646;28;20022;-74
2023/05/09 07:49:02;;;;;;;5.68;2.97;;;17.50;53.50;;;;;;4994454;28;20026;-74
2023/05/09 07:51:27;;;;;;;4.35;2.50;;;17.60;55.00;;;;;;4983892;28;20046;-73
2023/05/09 07:53:55;;;;;;;4.78;2.67;;;17.80;53.40;;;;;;4983764;28;20034;-72
2023/05/09 07:56:21;;;;;;;6.38;2.75;;;17.70;54.00;;;;;;4985634;28;20030;-72
2023/05/09 07:58:47;;;;;;;4.45;2.53;;;17.40;55.40;;;;;;4983234;28;20501;-74
2023/05/09 08:01:12;;;;;;;4.95;2.80;;;17.10;55.30;;;;;;4981297;28;20046;-74
2023/05/09 08:03:38;;;;;;;7.55;2.65;;;17.40;55.60;;;;;;4987243;28;20117;-74
2023/05/09 08:06:04;;;;;;;5.45;2.53;;;17.60;55.00;;;;;;4980555;28;20042;-74
2023/05/09 08:08:29;;;;;;;6.07;2.60;;;17.80;55.30;;;;;;4985543;28;20451;-74
2023/05/09 08:10:55;;;;;;;4.97;3.10;;;18.00;54.10;;;;;;4983257;28;20069;-74
2023/05/09 08:13:21;;;;;;;7.35;3.15;;;18.30;54.20;;;;;;4989919;28;20125;-74
2023/05/09 08:15:47;;;;;;;4.47;3.03;;;18.60;53.70;;;;;;4992759;28;20030;-74
2023/05/09 08:18:13;;;;;;;5.13;2.70;;;18.70;52.00;;;;;;4989535;28;20109;-73
2023/05/09 08:20:39;;;;;;;4.75;3.05;;;18.90;51.00;;;;;;4989511;28;20112;-73
2023/05/09 08:23:04;;;;;;;4.88;2.50;;;18.80;52.50;;;;;;4999378;28;20097;-73
2023/05/09 08:25:30;;;;;;;5.60;2.53;;;19.00;52.20;;;;;;4998058;28;20026;-74
2023/05/09 08:27:55;;;;;;;5.15;2.80;;;18.80;51.50;;;;;;4982353;28;20048;-74
2023/05/09 08:30:21;;;;;;;6.53;2.72;;;19.00;50.70;;;;;;4981188;28;20038;-74
2023/05/09 08:32:47;;;;;;;4.50;2.50;;;19.00;51.80;;;;;;4989732;28;20034;-74
2023/05/09 08:35:12;;;;;;;4.50;2.70;;;19.20;50.90;;;;;;4985056;28;20077;-74
2023/05/09 08:37:37;;;;;;;4.43;2.85;;;19.40;49.80;;;;;;4989971;28;20056;-74
2023/05/09 08:40:06;;;;;;;4.82;2.70;;;19.40;50.70;;;;;;4987761;28;20030;-74
2023/05/09 08:42:33;;;;;;;4.50;2.80;;;19.50;51.00;;;;;;4988591;28;20367;-74
2023/05/09 08:45:00;;;;;;;9.90;2.97;;;19.80;51.30;;;;;;4996622;28;20045;-74
2023/05/09 08:47:27;;;;;;;4.55;3.00;;;19.60;50.50;;;;;;4988256;28;20514;-74
2023/05/09 08:49:53;;;;;;;5.32;2.90;;;20.20;49.90;;;;;;4987258;28;20103;-74
2023/05/09 08:52:19;;;;;;;4.28;2.67;;;20.40;50.20;;;;;;4989390;28;20121;-74
2023/05/09 08:54:45;;;;;;;4.43;3.03;;;21.10;50.20;;;;;;4989047;28;20031;-74
2023/05/09 08:57:10;;;;;;;5.07;2.85;;;21.00;46.60;;;;;;4971417;28;20089;-74
2023/05/09 08:59:39;;;;;;;5.28;2.70;;;21.20;48.30;;;;;;4987843;28;20144;-74
2023/05/09 09:02:06;;;;;;;5.75;2.78;;;21.40;48.00;;;;;;4989116;28;20367;-74
2023/05/09 09:04:31;;;;;;;4.30;2.47;;;21.70;48.60;;;;;;4987931;28;20050;-74
2023/05/09 09:06:58;;;;;;;5.00;2.70;;;21.70;46.30;;;;;;4980339;28;20030;-74
2023/05/09 09:09:25;;;;;;;3.83;2.60;;;21.40;45.70;;;;;;4983026;28;20034;-74
2023/05/09 09:11:52;;;;;;;4.32;2.55;;;21.50;48.40;;;;;;4986667;28;20030;-74
2023/05/09 09:14:26;;;;;;;3.92;2.47;;;22.00;47.60;;;;;;4967709;28;20070;-74
2023/05/09 09:16:54;;;;;;;3.33;2.28;;;21.00;47.50;;;;;;4984795;28;20113;-74
2023/05/09 09:19:25;;;;;;;6.13;2.65;;;21.50;47.40;;;;;;4988156;28;21302;-74
2023/05/09 09:21:53;;;;;;;5.13;2.50;;;21.30;45.70;;;;;;4986143;28;20026;-74
2023/05/09 09:24:21;;;;;;;4.30;2.20;;;21.20;45.40;;;;;;5001263;28;20034;-74
2023/05/09 09:26:49;;;;;;;3.92;2.05;;;21.70;45.60;;;;;;4990234;28;20537;-74
2023/05/09 09:29:16;;;;;;;5.22;2.35;;;22.00;44.10;;;;;;4993435;28;20042;-74
2023/05/09 09:31:46;;;;;;;5.00;2.50;;;22.20;44.20;;;;;;4993046;28;20105;-74
2023/05/09 09:34:16;;;;;;;4.05;2.17;;;22.20;41.70;;;;;;4985979;28;20031;-75
2023/05/09 09:36:41;;;;;;;12.82;2.45;;;22.00;44.20;;;;;;4991013;28;20049;-77
2023/05/09 09:39:08;;;;;;;8.45;2.20;;;22.40;41.30;;;;;;4988791;28;20050;-77
2023/05/09 09:41:37;;;;;;;4.60;2.40;;;22.70;41.30;;;;;;4991238;28;20030;-77
2023/05/09 09:44:10;;;;;;;3.80;2.33;;;22.90;41.30;;;;;;4992405;28;20367;-77
2023/05/09 09:46:49;;;;;;;6.57;1.98;;;22.60;40.10;;;;;;4992677;28;20274;-77
2023/05/09 09:49:19;;;;;;;4.45;2.05;;;22.50;40.00;;;;;;4991754;28;20467;-77
2023/05/09 09:51:50;;;;;;;4.45;2.10;;;22.20;40.40;;;;;;4992630;28;20072;-77
2023/05/09 09:54:15;;;;;;;4.45;2.20;;;22.30;40.00;;;;;;4973637;28;20038;-77
2023/05/09 09:56:49;;;;;;;3.22;2.10;;;22.50;40.50;;;;;;4990138;28;20117;-77
2023/05/09 09:59:16;;;;;;;6.53;2.13;;;22.60;39.90;;;;;;4992742;28;20041;-76
2023/05/09 10:02:03;;;;;;;5.40;2.13;;;22.80;39.40;;;;;;4992401;28;20109;-75
2023/05/09 10:04:34;;;;;;;4.00;2.08;;;23.30;38.40;;;;;;4987406;28;20046;-77
2023/05/09 10:07:02;;;;;;;6.47;2.03;;;23.50;38.80;;;;;;4990432;28;20042;-75
2023/05/09 10:09:28;;;;;;;4.30;1.88;;;23.60;38.70;;;;;;4985243;28;20035;-77
2023/05/09 10:11:54;;;;;;;6.57;2.17;;;22.90;37.80;;;;;;4992628;28;20049;-78
2023/05/09 10:14:22;;;;;;;3.97;1.65;;;22.50;40.20;;;;;;4993440;28;20387;-77
2023/05/09 10:16:48;;;;;;;3.25;1.65;;;23.20;37.40;;;;;;4991485;28;20030;-77
2023/05/09 10:19:19;;;;;;;4.30;2.10;;;22.40;38.30;;;;;;4991463;28;20408;-78
2023/05/09 10:21:53;;;;;;;5.22;1.70;;;21.90;39.50;;;;;;4989008;28;20019;-77
2023/05/09 10:24:28;;;;;;;3.78;1.95;;;22.30;38.30;;;;;;4991389;28;20335;-77
2023/05/09 10:27:08;;;;;;;4.47;1.85;;;22.80;37.30;;;;;;4991033;28;20109;-77
2023/05/09 10:29:36;;;;;;;2.67;1.83;;;23.40;40.00;;;;;;4992191;28;20096;-76
2023/05/09 10:32:19;;;;;;;2.97;1.92;;;23.30;37.30;;;;;;5002911;28;20053;-78
2023/05/09 10:34:49;;;;;;;3.55;1.55;;;23.70;39.20;;;;;;4988950;28;20045;-78
2023/05/09 10:37:16;;;;;;;2.67;1.88;;;23.90;37.20;;;;;;4972904;28;20064;-78
2023/05/09 10:39:42;;;;;;;4.97;1.88;;;24.30;38.10;;;;;;4989761;28;20046;-78
2023/05/09 10:42:08;;;;;;;3.58;2.05;;;24.20;36.60;;;;;;4992402;28;20019;-78
2023/05/09 10:44:34;;;;;;;6.70;1.95;;;23.90;36.10;;;;;;4981922;28;20348;-76
2023/05/09 10:47:00;;;;;;;3.65;2.13;;;23.80;34.60;;;;;;4995700;28;20034;-78
2023/05/09 10:49:26;;;;;;;2.90;1.67;;;24.20;35.10;;;;;;4997121;28;20023;-76
2023/05/09 10:51:52;;;;;;;4.63;1.70;;;24.60;35.30;;;;;;4994133;28;20490;-77
2023/05/09 10:54:31;;;;;;;3.05;1.67;;;24.10;35.60;;;;;;4991332;28;20038;-77
2023/05/09 10:56:56;;;;;;;3.15;1.60;;;23.50;35.70;;;;;;4990910;28;20073;-78
2023/05/09 10:59:51;;;;;;;4.25;1.65;;;23.20;36.70;;;;;;4991636;28;20038;-78
2023/05/09 11:02:20;;;;;;;3.85;1.73;;;23.30;36.40;;;;;;4970974;28;20093;-78
2023/05/09 11:04:46;;;;;;;3.90;1.75;;;23.40;35.40;;;;;;4989632;28;20428;-77
2023/05/09 11:07:30;;;;;;;3.08;1.90;;;23.30;36.70;;;;;;4987432;28;20105;-77
2023/05/09 11:10:13;;;;;;;3.80;1.73;;;23.20;35.30;;;;;;4988888;28;20042;-77
2023/05/09 11:13:01;;;;;;;3.33;1.70;;;22.90;35.90;;;;;;4992412;28;20018;-77
2023/05/09 11:15:27;;;;;;;4.20;1.75;;;23.00;35.90;;;;;;4983706;28;20117;-78
2023/05/09 11:18:11;;;;;;;6.68;2.25;;;23.50;36.10;;;;;;4989779;28;20034;-77
2023/05/09 11:20:47;;;;;;;2.63;2.00;;;24.00;35.30;;;;;;4988555;28;20033;-78
2023/05/09 11:23:16;;;;;;;3.50;2.20;;;24.50;35.10;;;;;;4990879;28;20028;-75
2023/05/09 11:25:44;;;;;;;3.65;2.10;;;24.20;35.10;;;;;;4991467;28;20030;-79
2023/05/09 11:28:11;;;;;;;3.58;2.05;;;24.60;35.20;;;;;;4990306;28;20084;-77
2023/05/09 11:30:40;;;;;;;7.60;1.90;;;24.70;33.90;;;;;;4985208;28;20442;-78
2023/05/09 11:33:29;;;;;;;6.53;2.20;;;24.20;34.90;;;;;;4982714;28;20010;-76
2023/05/09 11:36:17;;;;;;;4.40;2.17;;;24.00;34.50;;;;;;4985288;28;20034;-76
2023/05/09 11:38:44;;;;;;;3.72;1.90;;;24.40;34.60;;;;;;4990166;28;20045;-77
2023/05/09 11:41:10;;;;;;;3.58;1.90;;;24.20;33.60;;;;;;4989593;28;20370;-78
2023/05/09 11:43:36;;;;;;;3.75;2.08;;;24.80;33.70;;;;;;4997581;28;20102;-77
2023/05/09 11:46:03;;;;;;;4.43;2.13;;;24.60;33.90;;;;;;4990340;28;20083;-78
2023/05/09 11:48:28;;;;;;;6.70;2.38;;;24.80;33.10;;;;;;4990835;28;20069;-78
2023/05/09 11:50:54;;;;;;;6.22;1.90;;;24.90;33.70;;;;;;4990200;28;20498;-77
2023/05/09 11:53:19;;;;;;;5.97;2.10;;;25.00;34.20;;;;;;4990766;28;20044;-78
2023/05/09 11:55:45;;;;;;;4.70;1.92;;;24.70;33.30;;;;;;4991888;28;20444;-78
2023/05/09 11:58:12;;;;;;;1.80;1.55;;;25.10;33.40;;;;;;4990661;28;20032;-77
2023/05/09 12:00:43;;;;;;;2.83;1.90;;;25.40;33.20;;;;;;4988006;28;20038;-78
2023/05/09 12:03:09;;;;;;;2.03;1.48;;;24.70;33.80;;;;;;4983862;28;20034;-77
2023/05/09 12:05:38;;;;;;;2.78;1.83;;;24.60;34.10;;;;;;4984917;28;20366;-75
2023/05/09 12:08:05;;;;;;;3.92;1.90;;;24.40;33.50;;;;;;4987394;28;20022;-76
2023/05/09 12:10:31;;;;;;;3.05;1.80;;;24.20;34.50;;;;;;4985751;28;20113;-77
2023/05/09 12:12:56;;;;;;;3.97;1.75;;;24.50;34.90;;;;;;4998417;28;20105;-77
2023/05/09 12:15:22;;;;;;;2.97;1.65;;;24.00;34.90;;;;;;4984292;28;20541;-74
2023/05/09 12:18:03;;;;;;;3.50;1.95;;;24.80;35.30;;;;;;4989448;28;20105;-75
2023/05/09 12:20:43;;;;;;;7.40;2.13;;;25.10;36.00;;;;;;4988317;28;20463;-75
2023/05/09 12:23:13;;;;;;;4.57;2.00;;;23.90;35.30;;;;;;4985203;28;20030;-75
2023/05/09 12:25:55;;;;;;;3.67;1.90;;;24.90;35.50;;;;;;4988775;28;20023;-75
2023/05/09 12:28:24;;;;;;;5.55;2.03;;;24.50;35.40;;;;;;4989976;28;20089;-75
2023/05/09 12:30:51;;;;;;;4.78;1.98;;;24.70;34.70;;;;;;4989126;28;20481;-75
2023/05/09 12:33:17;;;;;;;4.25;2.20;;;24.80;35.30;;;;;;4979207;28;20448;-74
2023/05/09 12:36:04;;;;;;;3.88;1.90;;;25.30;36.30;;;;;;4985938;28;20057;-75
2023/05/09 12:38:30;;;;;;;4.93;2.00;;;25.00;33.70;;;;;;4990497;28;20088;-75
2023/05/09 12:41:03;;;;;;;4.53;1.83;;;25.70;34.60;;;;;;4987425;28;20519;-75
2023/05/09 12:43:33;;;;;;;5.75;2.40;;;25.50;33.80;;;;;;4984620;28;20026;-74
2023/05/09 12:46:00;;;;;;;8.40;2.40;;;25.90;33.80;;;;;;4987983;28;20023;-74
2023/05/09 12:48:26;;;;;;;4.72;1.80;;;25.50;34.40;;;;;;4984674;28;20014;-74
2023/05/09 12:50:51;;;;;;;3.88;1.95;;;25.00;35.80;;;;;;4981149;28;20027;-75
2023/05/09 12:53:30;;;;;;;5.75;2.22;;;25.80;33.90;;;;;;4979672;28;20030;-74
2023/05/09 12:56:01;;;;;;;6.55;2.30;;;26.00;34.20;;;;;;4990809;28;20455;-74
2023/05/09 12:58:31;;;;;;;4.15;2.05;;;26.90;33.00;;;;;;4993111;28;20045;-75
2023/05/09 13:00:58;;;;;;;3.75;1.85;;;27.00;31.90;;;;;;4993470;28;20086;-74